Main page
METAR-TAF:

METAR-TAF

Airports :

Piarco International Airport

Port of Spain, Trinidad, Trinidad and Tobago

latitude: 10-37N, longitude: 061-21W, elevation: 12 m

Current weather observation

The report was made 25 minutes ago, at 23:00 UTC
Wind 6 kt from the East/Southeast
Temperature 26°C
Humidity 79%
Pressure 1014 hPa
Visibility 10 km or more
Few clouds at a height of 2500 ft

METAR: TTPP 212300Z 11006KT 9999 FEW025 26/22 Q1014 NOSIG

Time: 19:25 (23:25 UTC)

Forecast

The report was made 7 hours and 25 minutes ago, at 16:00 UTC
Forecast valid from 21 at 18 UTC to 22 at 18 UTC
Wind 12 kt from the East/Southeast
Visibility 10 km or more
Few clouds at a height of 2000 ft
Becoming
from 21 at 23 UTC to 22 at 01 UTC
Wind 5 kt from the East

TAF: TTPP 211600Z 2118/2218 11012KT 9999 FEW020 BECMG 2123/2201 10005KT

Weather observations and forecasts of more than 4000 airports (METAR and TAF reports).

The available stations are represented by yellow and red dots on the map.

Hover mouse over dot to see the name of the station.

Then click to see weather observations and forecasts.

To change the map : click on the green buttons with a black cross to zoom in, on the green button with a dash to zoom out, or on the green arrows for adjacent maps.


METAR-TAF: